sensor_id;sensor_type;location;lat;lon;timestamp;temperature;humidity
28845;DHT22;15976;47.938;7.758;2024-02-26T00:01:51;8.70;69.90
28845;DHT22;15976;47.938;7.758;2024-02-26T00:04:19;8.60;71.20
28845;DHT22;15976;47.938;7.758;2024-02-26T00:06:46;8.60;72.10
28845;DHT22;15976;47.938;7.758;2024-02-26T00:09:14;8.50;72.70
28845;DHT22;15976;47.938;7.758;2024-02-26T00:11:41;8.50;73.60
28845;DHT22;15976;47.938;7.758;2024-02-26T00:14:09;8.40;74.30
28845;DHT22;15976;47.938;7.758;2024-02-26T00:16:36;8.40;74.90
28845;DHT22;15976;47.938;7.758;2024-02-26T00:19:03;8.40;75.40
28845;DHT22;15976;47.938;7.758;2024-02-26T00:21:30;8.40;76.00
28845;DHT22;15976;47.938;7.758;2024-02-26T00:23:57;8.40;76.40
28845;DHT22;15976;47.938;7.758;2024-02-26T00:26:24;8.40;76.30
28845;DHT22;15976;47.938;7.758;2024-02-26T00:28:51;8.50;76.90
28845;DHT22;15976;47.938;7.758;2024-02-26T00:31:18;8.50;77.40
28845;DHT22;15976;47.938;7.758;2024-02-26T00:33:46;8.60;77.80
28845;DHT22;15976;47.938;7.758;2024-02-26T00:36:13;8.50;77.80
28845;DHT22;15976;47.938;7.758;2024-02-26T00:38:40;8.50;78.40
28845;DHT22;15976;47.938;7.758;2024-02-26T00:41:07;8.50;79.00
28845;DHT22;15976;47.938;7.758;2024-02-26T00:43:35;8.50;79.30
28845;DHT22;15976;47.938;7.758;2024-02-26T00:46:02;8.60;79.40
28845;DHT22;15976;47.938;7.758;2024-02-26T00:48:29;8.50;79.20
28845;DHT22;15976;47.938;7.758;2024-02-26T00:50:56;8.40;79.20
28845;DHT22;15976;47.938;7.758;2024-02-26T00:53:23;8.30;79.20
28845;DHT22;15976;47.938;7.758;2024-02-26T00:55:51;8.30;79.00
28845;DHT22;15976;47.938;7.758;2024-02-26T00:58:19;8.20;78.70
28845;DHT22;15976;47.938;7.758;2024-02-26T01:00:46;8.20;79.10
28845;DHT22;15976;47.938;7.758;2024-02-26T01:03:13;8.30;79.10
28845;DHT22;15976;47.938;7.758;2024-02-26T01:05:40;8.20;79.30
28845;DHT22;15976;47.938;7.758;2024-02-26T01:08:07;8.20;79.80
28845;DHT22;15976;47.938;7.758;2024-02-26T01:10:35;8.20;80.10
28845;DHT22;15976;47.938;7.758;2024-02-26T01:13:02;8.20;80.80
28845;DHT22;15976;47.938;7.758;2024-02-26T01:15:29;8.20;81.30
28845;DHT22;15976;47.938;7.758;2024-02-26T01:17:56;8.30;81.70
28845;DHT22;15976;47.938;7.758;2024-02-26T01:20:23;8.30;81.90
28845;DHT22;15976;47.938;7.758;2024-02-26T01:22:50;8.30;82.10
28845;DHT22;15976;47.938;7.758;2024-02-26T01:25:17;8.30;82.50
28845;DHT22;15976;47.938;7.758;2024-02-26T01:27:45;8.30;82.40
28845;DHT22;15976;47.938;7.758;2024-02-26T01:30:12;8.40;82.80
28845;DHT22;15976;47.938;7.758;2024-02-26T01:32:39;8.40;82.80
28845;DHT22;15976;47.938;7.758;2024-02-26T01:35:06;8.30;82.80
28845;DHT22;15976;47.938;7.758;2024-02-26T01:37:38;8.40;83.50
28845;DHT22;15976;47.938;7.758;2024-02-26T01:40:06;8.40;83.80
28845;DHT22;15976;47.938;7.758;2024-02-26T01:42:34;8.50;83.90
28845;DHT22;15976;47.938;7.758;2024-02-26T01:45:01;8.50;84.80
28845;DHT22;15976;47.938;7.758;2024-02-26T01:47:29;8.60;83.90
28845;DHT22;15976;47.938;7.758;2024-02-26T01:49:56;8.60;84.00
28845;DHT22;15976;47.938;7.758;2024-02-26T01:52:24;8.50;84.10
28845;DHT22;15976;47.938;7.758;2024-02-26T01:54:51;8.60;84.40
28845;DHT22;15976;47.938;7.758;2024-02-26T01:57:18;8.50;84.30
28845;DHT22;15976;47.938;7.758;2024-02-26T01:59:45;8.50;84.10
28845;DHT22;15976;47.938;7.758;2024-02-26T02:02:14;8.40;83.90
28845;DHT22;15976;47.938;7.758;2024-02-26T02:04:42;8.40;82.80
28845;DHT22;15976;47.938;7.758;2024-02-26T02:07:09;8.40;82.00
28845;DHT22;15976;47.938;7.758;2024-02-26T02:09:37;8.50;81.10
28845;DHT22;15976;47.938;7.758;2024-02-26T02:12:05;8.60;79.30
28845;DHT22;15976;47.938;7.758;2024-02-26T02:14:33;8.80;77.80
28845;DHT22;15976;47.938;7.758;2024-02-26T02:17:00;8.90;77.00
28845;DHT22;15976;47.938;7.758;2024-02-26T02:19:27;8.90;76.40
28845;DHT22;15976;47.938;7.758;2024-02-26T02:21:54;8.90;76.20
28845;DHT22;15976;47.938;7.758;2024-02-26T02:24:21;8.90;76.80
28845;DHT22;15976;47.938;7.758;2024-02-26T02:26:48;8.80;77.40
28845;DHT22;15976;47.938;7.758;2024-02-26T02:29:15;8.60;78.00
28845;DHT22;15976;47.938;7.758;2024-02-26T02:31:42;8.60;79.00
28845;DHT22;15976;47.938;7.758;2024-02-26T02:34:10;8.50;79.80
28845;DHT22;15976;47.938;7.758;2024-02-26T02:36:51;8.40;80.30
28845;DHT22;15976;47.938;7.758;2024-02-26T02:39:19;8.40;80.70
28845;DHT22;15976;47.938;7.758;2024-02-26T02:41:49;8.40;80.90
28845;DHT22;15976;47.938;7.758;2024-02-26T02:44:16;8.40;81.20
28845;DHT22;15976;47.938;7.758;2024-02-26T02:46:43;8.40;81.20
28845;DHT22;15976;47.938;7.758;2024-02-26T02:49:10;8.30;81.80
28845;DHT22;15976;47.938;7.758;2024-02-26T02:51:38;8.30;82.30
28845;DHT22;15976;47.938;7.758;2024-02-26T02:54:05;8.30;82.80
28845;DHT22;15976;47.938;7.758;2024-02-26T02:56:32;8.30;83.20
28845;DHT22;15976;47.938;7.758;2024-02-26T02:58:59;8.40;83.70
28845;DHT22;15976;47.938;7.758;2024-02-26T03:01:26;8.40;83.80
28845;DHT22;15976;47.938;7.758;2024-02-26T03:03:53;8.40;83.90
28845;DHT22;15976;47.938;7.758;2024-02-26T03:06:20;8.40;84.20
28845;DHT22;15976;47.938;7.758;2024-02-26T03:08:48;8.50;84.20
28845;DHT22;15976;47.938;7.758;2024-02-26T03:11:15;8.50;84.60
28845;DHT22;15976;47.938;7.758;2024-02-26T03:13:42;8.50;85.00
28845;DHT22;15976;47.938;7.758;2024-02-26T03:16:09;8.50;84.80
28845;DHT22;15976;47.938;7.758;2024-02-26T03:18:39;8.50;85.20
28845;DHT22;15976;47.938;7.758;2024-02-26T03:21:07;8.50;85.30
28845;DHT22;15976;47.938;7.758;2024-02-26T03:23:34;8.50;85.20
28845;DHT22;15976;47.938;7.758;2024-02-26T03:26:04;8.50;85.60
28845;DHT22;15976;47.938;7.758;2024-02-26T03:28:31;8.50;86.00
28845;DHT22;15976;47.938;7.758;2024-02-26T03:31:01;8.50;86.00
28845;DHT22;15976;47.938;7.758;2024-02-26T03:33:29;8.60;86.50
28845;DHT22;15976;47.938;7.758;2024-02-26T03:35:56;8.50;86.40
28845;DHT22;15976;47.938;7.758;2024-02-26T03:38:23;8.50;86.60
28845;DHT22;15976;47.938;7.758;2024-02-26T03:40:50;8.50;86.50
28845;DHT22;15976;47.938;7.758;2024-02-26T03:43:17;8.50;86.90
28845;DHT22;15976;47.938;7.758;2024-02-26T03:45:44;8.50;87.20
28845;DHT22;15976;47.938;7.758;2024-02-26T03:48:11;8.60;87.00
28845;DHT22;15976;47.938;7.758;2024-02-26T03:50:39;8.50;86.80
28845;DHT22;15976;47.938;7.758;2024-02-26T03:53:06;8.50;86.80
28845;DHT22;15976;47.938;7.758;2024-02-26T03:55:40;8.50;86.70
28845;DHT22;15976;47.938;7.758;2024-02-26T03:58:09;8.40;86.60
28845;DHT22;15976;47.938;7.758;2024-02-26T04:00:37;8.40;86.90
28845;DHT22;15976;47.938;7.758;2024-02-26T04:03:04;8.40;86.90
28845;DHT22;15976;47.938;7.758;2024-02-26T04:05:31;8.40;87.30
28845;DHT22;15976;47.938;7.758;2024-02-26T04:07:58;8.30;87.40
28845;DHT22;15976;47.938;7.758;2024-02-26T04:10:25;8.40;87.70
28845;DHT22;15976;47.938;7.758;2024-02-26T04:12:52;8.40;87.80
28845;DHT22;15976;47.938;7.758;2024-02-26T04:15:19;8.40;87.90
28845;DHT22;15976;47.938;7.758;2024-02-26T04:17:46;8.40;88.20
28845;DHT22;15976;47.938;7.758;2024-02-26T04:20:15;8.40;88.40
28845;DHT22;15976;47.938;7.758;2024-02-26T04:22:42;8.40;88.60
28845;DHT22;15976;47.938;7.758;2024-02-26T04:25:10;8.40;88.30
28845;DHT22;15976;47.938;7.758;2024-02-26T04:27:37;8.40;88.10
28845;DHT22;15976;47.938;7.758;2024-02-26T04:30:05;8.40;88.60
28845;DHT22;15976;47.938;7.758;2024-02-26T04:32:33;8.40;89.00
28845;DHT22;15976;47.938;7.758;2024-02-26T04:35:02;8.40;89.10
28845;DHT22;15976;47.938;7.758;2024-02-26T04:37:30;8.40;88.90
28845;DHT22;15976;47.938;7.758;2024-02-26T04:40:01;8.40;89.10
28845;DHT22;15976;47.938;7.758;2024-02-26T04:42:30;8.40;89.20
28845;DHT22;15976;47.938;7.758;2024-02-26T04:44:58;8.40;89.40
28845;DHT22;15976;47.938;7.758;2024-02-26T04:47:25;8.40;89.40
28845;DHT22;15976;47.938;7.758;2024-02-26T04:49:52;8.40;89.40
28845;DHT22;15976;47.938;7.758;2024-02-26T04:52:19;8.40;89.30
28845;DHT22;15976;47.938;7.758;2024-02-26T04:54:46;8.40;89.00
28845;DHT22;15976;47.938;7.758;2024-02-26T04:57:14;8.30;88.70
28845;DHT22;15976;47.938;7.758;2024-02-26T04:59:41;8.20;88.90
28845;DHT22;15976;47.938;7.758;2024-02-26T05:02:09;8.20;89.00
28845;DHT22;15976;47.938;7.758;2024-02-26T05:04:37;8.10;89.20
28845;DHT22;15976;47.938;7.758;2024-02-26T05:07:04;8.10;89.20
28845;DHT22;15976;47.938;7.758;2024-02-26T05:09:31;8.00;89.20
28845;DHT22;15976;47.938;7.758;2024-02-26T05:11:58;8.00;89.20
28845;DHT22;15976;47.938;7.758;2024-02-26T05:14:26;8.00;89.10
28845;DHT22;15976;47.938;7.758;2024-02-26T05:16:53;8.10;88.80
28845;DHT22;15976;47.938;7.758;2024-02-26T05:19:20;8.10;88.40
28845;DHT22;15976;47.938;7.758;2024-02-26T05:21:47;8.10;88.10
28845;DHT22;15976;47.938;7.758;2024-02-26T05:24:16;8.10;87.90
28845;DHT22;15976;47.938;7.758;2024-02-26T05:26:45;8.10;87.60
28845;DHT22;15976;47.938;7.758;2024-02-26T05:29:12;8.20;87.40
28845;DHT22;15976;47.938;7.758;2024-02-26T05:31:42;8.20;87.10
28845;DHT22;15976;47.938;7.758;2024-02-26T05:34:09;8.20;86.80
28845;DHT22;15976;47.938;7.758;2024-02-26T05:36:37;8.30;86.30
28845;DHT22;15976;47.938;7.758;2024-02-26T05:39:04;8.30;85.90
28845;DHT22;15976;47.938;7.758;2024-02-26T05:41:31;8.40;85.40
28845;DHT22;15976;47.938;7.758;2024-02-26T05:43:58;8.40;85.10
28845;DHT22;15976;47.938;7.758;2024-02-26T05:46:26;8.50;84.80
28845;DHT22;15976;47.938;7.758;2024-02-26T05:48:54;8.50;84.60
28845;DHT22;15976;47.938;7.758;2024-02-26T05:51:21;8.60;85.20
28845;DHT22;15976;47.938;7.758;2024-02-26T05:53:49;8.70;84.20
28845;DHT22;15976;47.938;7.758;2024-02-26T05:56:24;8.70;83.80
28845;DHT22;15976;47.938;7.758;2024-02-26T05:58:51;8.80;83.40
28845;DHT22;15976;47.938;7.758;2024-02-26T06:01:20;8.90;83.10
28845;DHT22;15976;47.938;7.758;2024-02-26T06:03:47;9.00;82.80
28845;DHT22;15976;47.938;7.758;2024-02-26T06:06:14;9.00;82.40
28845;DHT22;15976;47.938;7.758;2024-02-26T06:08:42;9.10;82.20
28845;DHT22;15976;47.938;7.758;2024-02-26T06:11:10;9.20;81.90
28845;DHT22;15976;47.938;7.758;2024-02-26T06:13:37;9.20;81.60
28845;DHT22;15976;47.938;7.758;2024-02-26T06:16:08;9.30;81.40
28845;DHT22;15976;47.938;7.758;2024-02-26T06:18:35;9.30;81.20
28845;DHT22;15976;47.938;7.758;2024-02-26T06:21:02;9.40;81.10
28845;DHT22;15976;47.938;7.758;2024-02-26T06:23:29;9.30;81.30
28845;DHT22;15976;47.938;7.758;2024-02-26T06:25:57;9.30;81.60
28845;DHT22;15976;47.938;7.758;2024-02-26T06:28:24;9.30;81.80
28845;DHT22;15976;47.938;7.758;2024-02-26T06:30:51;9.30;81.90
28845;DHT22;15976;47.938;7.758;2024-02-26T06:33:19;9.30;82.20
28845;DHT22;15976;47.938;7.758;2024-02-26T06:35:46;9.30;82.40
28845;DHT22;15976;47.938;7.758;2024-02-26T06:38:13;9.30;82.80
28845;DHT22;15976;47.938;7.758;2024-02-26T06:40:40;9.20;83.10
28845;DHT22;15976;47.938;7.758;2024-02-26T06:43:07;9.20;83.40
28845;DHT22;15976;47.938;7.758;2024-02-26T06:45:34;9.20;83.80
28845;DHT22;15976;47.938;7.758;2024-02-26T06:48:01;9.20;84.20
28845;DHT22;15976;47.938;7.758;2024-02-26T06:50:29;9.20;84.30
28845;DHT22;15976;47.938;7.758;2024-02-26T06:52:56;9.20;84.70
28845;DHT22;15976;47.938;7.758;2024-02-26T06:55:23;9.20;85.00
28845;DHT22;15976;47.938;7.758;2024-02-26T06:57:50;9.20;85.30
28845;DHT22;15976;47.938;7.758;2024-02-26T07:00:17;9.20;85.40
28845;DHT22;15976;47.938;7.758;2024-02-26T07:02:45;9.20;85.60
28845;DHT22;15976;47.938;7.758;2024-02-26T07:05:12;9.20;86.50
28845;DHT22;15976;47.938;7.758;2024-02-26T07:07:39;9.30;85.90
28845;DHT22;15976;47.938;7.758;2024-02-26T07:10:07;9.20;86.30
28845;DHT22;15976;47.938;7.758;2024-02-26T07:12:34;9.20;86.60
28845;DHT22;15976;47.938;7.758;2024-02-26T07:15:01;9.30;86.80
28845;DHT22;15976;47.938;7.758;2024-02-26T07:17:29;9.30;87.00
28845;DHT22;15976;47.938;7.758;2024-02-26T07:19:56;9.40;87.10
28845;DHT22;15976;47.938;7.758;2024-02-26T07:22:24;9.40;87.20
28845;DHT22;15976;47.938;7.758;2024-02-26T07:24:51;9.40;87.20
28845;DHT22;15976;47.938;7.758;2024-02-26T07:27:18;9.50;87.40
28845;DHT22;15976;47.938;7.758;2024-02-26T07:29:46;9.50;87.20
28845;DHT22;15976;47.938;7.758;2024-02-26T07:32:13;9.50;87.30
28845;DHT22;15976;47.938;7.758;2024-02-26T07:34:41;9.50;88.20
28845;DHT22;15976;47.938;7.758;2024-02-26T07:37:09;9.60;87.50
28845;DHT22;15976;47.938;7.758;2024-02-26T07:39:36;9.70;88.00
28845;DHT22;15976;47.938;7.758;2024-02-26T07:42:04;9.80;88.40
28845;DHT22;15976;47.938;7.758;2024-02-26T07:44:31;9.90;88.60
28845;DHT22;15976;47.938;7.758;2024-02-26T07:46:58;10.40;88.00
28845;DHT22;15976;47.938;7.758;2024-02-26T07:49:25;10.70;85.00
28845;DHT22;15976;47.938;7.758;2024-02-26T07:51:53;10.70;83.50
28845;DHT22;15976;47.938;7.758;2024-02-26T07:54:20;10.70;83.40
28845;DHT22;15976;47.938;7.758;2024-02-26T07:56:47;10.60;83.60
28845;DHT22;15976;47.938;7.758;2024-02-26T07:59:14;10.60;84.10
28845;DHT22;15976;47.938;7.758;2024-02-26T08:01:42;10.60;84.50
28845;DHT22;15976;47.938;7.758;2024-02-26T08:04:12;10.70;84.60
28845;DHT22;15976;47.938;7.758;2024-02-26T08:06:39;10.80;84.40
28845;DHT22;15976;47.938;7.758;2024-02-26T08:09:06;10.90;84.50
28845;DHT22;15976;47.938;7.758;2024-02-26T08:11:33;11.00;84.00
28845;DHT22;15976;47.938;7.758;2024-02-26T08:14:01;11.10;83.20
28845;DHT22;15976;47.938;7.758;2024-02-26T08:16:27;11.10;82.90
28845;DHT22;15976;47.938;7.758;2024-02-26T08:18:55;11.20;83.00
28845;DHT22;15976;47.938;7.758;2024-02-26T08:21:22;11.30;82.50
28845;DHT22;15976;47.938;7.758;2024-02-26T08:23:50;11.30;81.50
28845;DHT22;15976;47.938;7.758;2024-02-26T08:26:17;11.30;81.20
28845;DHT22;15976;47.938;7.758;2024-02-26T08:28:49;11.20;81.50
28845;DHT22;15976;47.938;7.758;2024-02-26T08:31:18;11.10;81.20
28845;DHT22;15976;47.938;7.758;2024-02-26T08:33:45;11.10;81.20
28845;DHT22;15976;47.938;7.758;2024-02-26T08:36:12;11.00;81.40
28845;DHT22;15976;47.938;7.758;2024-02-26T08:38:39;11.00;81.50
28845;DHT22;15976;47.938;7.758;2024-02-26T08:41:06;11.10;81.60
28845;DHT22;15976;47.938;7.758;2024-02-26T08:43:33;11.20;81.90
28845;DHT22;15976;47.938;7.758;2024-02-26T08:46:00;11.30;81.30
28845;DHT22;15976;47.938;7.758;2024-02-26T08:48:27;11.30;80.80
28845;DHT22;15976;47.938;7.758;2024-02-26T08:50:55;11.40;80.60
28845;DHT22;15976;47.938;7.758;2024-02-26T08:53:22;11.40;80.20
28845;DHT22;15976;47.938;7.758;2024-02-26T08:56:00;11.30;80.80
28845;DHT22;15976;47.938;7.758;2024-02-26T08:58:28;11.20;79.80
28845;DHT22;15976;47.938;7.758;2024-02-26T09:00:55;11.10;80.20
28845;DHT22;15976;47.938;7.758;2024-02-26T09:03:22;11.10;80.60
28845;DHT22;15976;47.938;7.758;2024-02-26T09:05:49;11.10;80.90
28845;DHT22;15976;47.938;7.758;2024-02-26T09:08:17;11.10;80.70
28845;DHT22;15976;47.938;7.758;2024-02-26T09:10:44;11.20;80.80
28845;DHT22;15976;47.938;7.758;2024-02-26T09:13:11;11.20;80.30
28845;DHT22;15976;47.938;7.758;2024-02-26T09:15:38;11.20;80.00
28845;DHT22;15976;47.938;7.758;2024-02-26T09:18:05;11.30;80.20
28845;DHT22;15976;47.938;7.758;2024-02-26T09:20:32;11.40;80.00
28845;DHT22;15976;47.938;7.758;2024-02-26T09:22:59;11.50;79.90
28845;DHT22;15976;47.938;7.758;2024-02-26T09:25:26;11.50;79.60
28845;DHT22;15976;47.938;7.758;2024-02-26T09:27:54;11.70;80.00
28845;DHT22;15976;47.938;7.758;2024-02-26T09:30:22;11.80;79.90
28845;DHT22;15976;47.938;7.758;2024-02-26T09:32:49;11.80;79.20
28845;DHT22;15976;47.938;7.758;2024-02-26T09:35:16;11.80;78.50
28845;DHT22;15976;47.938;7.758;2024-02-26T09:37:43;11.80;78.40
28845;DHT22;15976;47.938;7.758;2024-02-26T09:40:11;11.80;78.50
28845;DHT22;15976;47.938;7.758;2024-02-26T09:42:46;11.70;78.40
28845;DHT22;15976;47.938;7.758;2024-02-26T09:45:18;11.70;78.00
28845;DHT22;15976;47.938;7.758;2024-02-26T09:47:48;11.60;77.80
28845;DHT22;15976;47.938;7.758;2024-02-26T09:50:17;11.50;78.00
28845;DHT22;15976;47.938;7.758;2024-02-26T09:52:45;11.50;78.30
28845;DHT22;15976;47.938;7.758;2024-02-26T09:55:12;11.60;78.20
28845;DHT22;15976;47.938;7.758;2024-02-26T09:57:45;11.80;78.20
28845;DHT22;15976;47.938;7.758;2024-02-26T10:00:21;11.90;77.80
28845;DHT22;15976;47.938;7.758;2024-02-26T10:02:49;12.10;77.20
28845;DHT22;15976;47.938;7.758;2024-02-26T10:05:19;12.20;76.80
28845;DHT22;15976;47.938;7.758;2024-02-26T10:07:47;12.20;76.00
28845;DHT22;15976;47.938;7.758;2024-02-26T10:10:14;12.20;75.60
28845;DHT22;15976;47.938;7.758;2024-02-26T10:12:41;12.30;75.70
28845;DHT22;15976;47.938;7.758;2024-02-26T10:15:09;12.40;75.90
28845;DHT22;15976;47.938;7.758;2024-02-26T10:17:36;12.50;75.70
28845;DHT22;15976;47.938;7.758;2024-02-26T10:20:18;12.70;75.20
28845;DHT22;15976;47.938;7.758;2024-02-26T10:22:46;12.90;75.00
28845;DHT22;15976;47.938;7.758;2024-02-26T10:25:14;13.10;74.40
28845;DHT22;15976;47.938;7.758;2024-02-26T10:27:41;13.10;73.70
28845;DHT22;15976;47.938;7.758;2024-02-26T10:32:49;13.10;74.20
28845;DHT22;15976;47.938;7.758;2024-02-26T10:35:17;13.10;74.40
28845;DHT22;15976;47.938;7.758;2024-02-26T10:37:46;13.20;74.60
28845;DHT22;15976;47.938;7.758;2024-02-26T10:40:14;13.20;74.70
28845;DHT22;15976;47.938;7.758;2024-02-26T10:42:42;13.30;74.50
28845;DHT22;15976;47.938;7.758;2024-02-26T10:45:10;13.30;74.20
28845;DHT22;15976;47.938;7.758;2024-02-26T10:47:37;13.40;74.20
28845;DHT22;15976;47.938;7.758;2024-02-26T10:50:06;13.40;74.50
28845;DHT22;15976;47.938;7.758;2024-02-26T10:52:34;13.40;74.70
28845;DHT22;15976;47.938;7.758;2024-02-26T10:55:03;13.50;74.90
28845;DHT22;15976;47.938;7.758;2024-02-26T10:57:36;13.60;74.70
28845;DHT22;15976;47.938;7.758;2024-02-26T11:00:10;13.70;74.10
28845;DHT22;15976;47.938;7.758;2024-02-26T11:02:41;13.80;73.60
28845;DHT22;15976;47.938;7.758;2024-02-26T11:05:08;14.00;73.20
28845;DHT22;15976;47.938;7.758;2024-02-26T11:07:36;14.20;72.80
28845;DHT22;15976;47.938;7.758;2024-02-26T11:10:04;14.30;72.00
28845;DHT22;15976;47.938;7.758;2024-02-26T11:12:33;14.50;71.50
28845;DHT22;15976;47.938;7.758;2024-02-26T11:15:03;14.60;71.20
28845;DHT22;15976;47.938;7.758;2024-02-26T11:17:31;14.90;70.90
28845;DHT22;15976;47.938;7.758;2024-02-26T11:20:00;15.10;70.30
28845;DHT22;15976;47.938;7.758;2024-02-26T11:22:29;15.20;69.40
28845;DHT22;15976;47.938;7.758;2024-02-26T11:24:57;15.30;69.40
28845;DHT22;15976;47.938;7.758;2024-02-26T11:27:28;15.40;69.40
28845;DHT22;15976;47.938;7.758;2024-02-26T11:29:58;15.40;68.60
28845;DHT22;15976;47.938;7.758;2024-02-26T11:32:28;15.50;68.50
28845;DHT22;15976;47.938;7.758;2024-02-26T11:34:58;15.60;68.20
28845;DHT22;15976;47.938;7.758;2024-02-26T11:37:26;15.70;68.20
28845;DHT22;15976;47.938;7.758;2024-02-26T11:39:53;15.80;67.70
28845;DHT22;15976;47.938;7.758;2024-02-26T11:42:24;15.90;67.20
28845;DHT22;15976;47.938;7.758;2024-02-26T11:44:52;16.00;67.10
28845;DHT22;15976;47.938;7.758;2024-02-26T11:47:23;16.00;66.60
28845;DHT22;15976;47.938;7.758;2024-02-26T11:49:50;16.00;66.30
28845;DHT22;15976;47.938;7.758;2024-02-26T11:52:18;16.00;66.20
28845;DHT22;15976;47.938;7.758;2024-02-26T11:54:54;15.90;66.20
28845;DHT22;15976;47.938;7.758;2024-02-26T12:00:00;16.10;65.60
28845;DHT22;15976;47.938;7.758;2024-02-26T12:05:26;16.20;65.10
28845;DHT22;15976;47.938;7.758;2024-02-26T12:08:05;16.30;65.00
28845;DHT22;15976;47.938;7.758;2024-02-26T12:10:39;16.40;64.90
28845;DHT22;15976;47.938;7.758;2024-02-26T12:13:11;16.50;64.30
28845;DHT22;15976;47.938;7.758;2024-02-26T12:15:55;16.50;63.90
28845;DHT22;15976;47.938;7.758;2024-02-26T12:18:23;16.60;63.60
28845;DHT22;15976;47.938;7.758;2024-02-26T12:21:01;16.70;63.50
28845;DHT22;15976;47.938;7.758;2024-02-26T12:23:29;16.80;63.20
28845;DHT22;15976;47.938;7.758;2024-02-26T12:26:00;16.80;63.00
28845;DHT22;15976;47.938;7.758;2024-02-26T12:28:32;16.80;63.00
28845;DHT22;15976;47.938;7.758;2024-02-26T12:30:59;16.80;63.00
28845;DHT22;15976;47.938;7.758;2024-02-26T12:33:27;16.90;62.60
28845;DHT22;15976;47.938;7.758;2024-02-26T12:35:56;16.90;62.10
28845;DHT22;15976;47.938;7.758;2024-02-26T12:38:23;16.90;61.80
28845;DHT22;15976;47.938;7.758;2024-02-26T12:40:51;17.00;61.70
28845;DHT22;15976;47.938;7.758;2024-02-26T12:43:18;17.00;61.40
28845;DHT22;15976;47.938;7.758;2024-02-26T12:45:45;17.00;61.30
28845;DHT22;15976;47.938;7.758;2024-02-26T12:48:14;17.00;61.20
28845;DHT22;15976;47.938;7.758;2024-02-26T12:50:46;17.00;60.90
28845;DHT22;15976;47.938;7.758;2024-02-26T12:53:14;17.00;61.00
28845;DHT22;15976;47.938;7.758;2024-02-26T12:55:42;16.90;61.20
28845;DHT22;15976;47.938;7.758;2024-02-26T12:58:09;16.80;61.10
28845;DHT22;15976;47.938;7.758;2024-02-26T13:00:36;16.70;60.80
28845;DHT22;15976;47.938;7.758;2024-02-26T13:03:04;16.60;61.10
28845;DHT22;15976;47.938;7.758;2024-02-26T13:05:32;16.50;61.00
28845;DHT22;15976;47.938;7.758;2024-02-26T13:08:00;16.50;60.80
28845;DHT22;15976;47.938;7.758;2024-02-26T13:10:31;16.40;61.00
28845;DHT22;15976;47.938;7.758;2024-02-26T13:13:01;16.30;61.30
28845;DHT22;15976;47.938;7.758;2024-02-26T13:15:29;16.20;61.40
28845;DHT22;15976;47.938;7.758;2024-02-26T13:17:56;16.20;61.70
28845;DHT22;15976;47.938;7.758;2024-02-26T13:20:30;16.10;61.40
28845;DHT22;15976;47.938;7.758;2024-02-26T13:23:05;16.00;61.20
28845;DHT22;15976;47.938;7.758;2024-02-26T13:25:34;16.00;60.90
28845;DHT22;15976;47.938;7.758;2024-02-26T13:28:18;16.00;61.00
28845;DHT22;15976;47.938;7.758;2024-02-26T13:30:52;16.00;60.80
28845;DHT22;15976;47.938;7.758;2024-02-26T13:33:21;16.00;60.90
28845;DHT22;15976;47.938;7.758;2024-02-26T13:35:50;16.00;60.80
28845;DHT22;15976;47.938;7.758;2024-02-26T13:38:17;16.10;60.90
28845;DHT22;15976;47.938;7.758;2024-02-26T13:40:44;16.10;60.70
28845;DHT22;15976;47.938;7.758;2024-02-26T13:43:11;16.20;60.70
28845;DHT22;15976;47.938;7.758;2024-02-26T13:45:39;16.30;60.60
28845;DHT22;15976;47.938;7.758;2024-02-26T13:48:07;16.40;60.40
28845;DHT22;15976;47.938;7.758;2024-02-26T13:50:38;16.60;60.00
28845;DHT22;15976;47.938;7.758;2024-02-26T13:53:08;16.70;59.70
28845;DHT22;15976;47.938;7.758;2024-02-26T13:55:35;16.80;59.50
28845;DHT22;15976;47.938;7.758;2024-02-26T13:58:03;16.90;59.30
28845;DHT22;15976;47.938;7.758;2024-02-26T14:00:30;16.90;59.00
28845;DHT22;15976;47.938;7.758;2024-02-26T14:03:01;16.90;58.90
28845;DHT22;15976;47.938;7.758;2024-02-26T14:05:30;16.70;58.80
28845;DHT22;15976;47.938;7.758;2024-02-26T14:07:57;16.60;59.10
28845;DHT22;15976;47.938;7.758;2024-02-26T14:10:25;16.50;59.00
28845;DHT22;15976;47.938;7.758;2024-02-26T14:12:53;16.40;58.90
28845;DHT22;15976;47.938;7.758;2024-02-26T14:15:20;16.40;58.80
28845;DHT22;15976;47.938;7.758;2024-02-26T14:17:47;16.30;58.70
28845;DHT22;15976;47.938;7.758;2024-02-26T14:20:21;16.30;58.80
28845;DHT22;15976;47.938;7.758;2024-02-26T14:22:52;16.40;58.90
28845;DHT22;15976;47.938;7.758;2024-02-26T14:25:21;16.50;58.70
28845;DHT22;15976;47.938;7.758;2024-02-26T14:27:49;16.60;58.60
28845;DHT22;15976;47.938;7.758;2024-02-26T14:30:16;16.70;58.40
28845;DHT22;15976;47.938;7.758;2024-02-26T14:32:44;16.80;58.10
28845;DHT22;15976;47.938;7.758;2024-02-26T14:35:11;16.80;57.80
28845;DHT22;15976;47.938;7.758;2024-02-26T14:37:44;16.80;57.60
28845;DHT22;15976;47.938;7.758;2024-02-26T14:40:15;16.80;57.50
28845;DHT22;15976;47.938;7.758;2024-02-26T14:42:43;16.80;57.50
28845;DHT22;15976;47.938;7.758;2024-02-26T14:45:10;16.80;57.50
28845;DHT22;15976;47.938;7.758;2024-02-26T14:47:38;16.70;57.50
28845;DHT22;15976;47.938;7.758;2024-02-26T14:50:06;16.60;57.50
28845;DHT22;15976;47.938;7.758;2024-02-26T14:52:33;16.60;57.60
28845;DHT22;15976;47.938;7.758;2024-02-26T14:55:01;16.60;57.40
28845;DHT22;15976;47.938;7.758;2024-02-26T14:57:28;16.60;57.20
28845;DHT22;15976;47.938;7.758;2024-02-26T14:59:57;16.50;57.30
28845;DHT22;15976;47.938;7.758;2024-02-26T15:02:24;16.50;57.50
28845;DHT22;15976;47.938;7.758;2024-02-26T15:04:51;16.50;57.60
28845;DHT22;15976;47.938;7.758;2024-02-26T15:07:18;16.40;57.70
28845;DHT22;15976;47.938;7.758;2024-02-26T15:09:47;16.40;57.80
28845;DHT22;15976;47.938;7.758;2024-02-26T15:12:14;16.30;57.80
28845;DHT22;15976;47.938;7.758;2024-02-26T15:14:42;16.30;57.70
28845;DHT22;15976;47.938;7.758;2024-02-26T15:17:09;16.30;57.70
28845;DHT22;15976;47.938;7.758;2024-02-26T15:19:42;16.20;57.50
28845;DHT22;15976;47.938;7.758;2024-02-26T15:22:09;16.20;57.50
28845;DHT22;15976;47.938;7.758;2024-02-26T15:24:36;16.10;57.60
28845;DHT22;15976;47.938;7.758;2024-02-26T15:27:04;16.00;57.70
28845;DHT22;15976;47.938;7.758;2024-02-26T15:29:31;15.90;57.80
28845;DHT22;15976;47.938;7.758;2024-02-26T15:31:58;15.90;57.80
28845;DHT22;15976;47.938;7.758;2024-02-26T15:34:25;15.90;58.00
28845;DHT22;15976;47.938;7.758;2024-02-26T15:36:53;15.90;58.10
28845;DHT22;15976;47.938;7.758;2024-02-26T15:39:19;15.90;58.20
28845;DHT22;15976;47.938;7.758;2024-02-26T15:41:48;15.90;58.50
28845;DHT22;15976;47.938;7.758;2024-02-26T15:44:15;15.90;58.80
28845;DHT22;15976;47.938;7.758;2024-02-26T15:46:42;15.80;59.00
28845;DHT22;15976;47.938;7.758;2024-02-26T15:49:09;15.80;59.30
28845;DHT22;15976;47.938;7.758;2024-02-26T15:51:42;15.80;59.60